createdAt,value
2017-08-23T00:02:28.874Z,5.17
2017-08-23T00:04:59.835Z,3.80
2017-08-23T00:07:31.737Z,3.87
2017-08-23T00:10:02.631Z,3.97
2017-08-23T00:12:32.986Z,2.73
2017-08-23T00:15:04.178Z,4.73
2017-08-23T00:17:34.662Z,4.23
2017-08-23T00:20:05.055Z,3.53
2017-08-23T00:22:36.947Z,3.23
2017-08-23T00:25:07.466Z,4.07
2017-08-23T00:27:38.111Z,4.47
2017-08-23T00:30:08.886Z,3.83
2017-08-23T00:32:39.306Z,4.87
2017-08-23T00:35:10.019Z,4.40
2017-08-23T00:37:40.898Z,3.87
2017-08-23T00:40:11.752Z,5.87
2017-08-23T00:42:42.425Z,4.03
2017-08-23T00:45:13.888Z,4.00
2017-08-23T00:47:44.458Z,4.00
2017-08-23T00:50:14.963Z,3.53
2017-08-23T00:52:45.508Z,5.30
2017-08-23T00:55:16.263Z,3.50
2017-08-23T00:57:46.841Z,3.77
2017-08-23T01:00:18.010Z,4.60
2017-08-23T01:02:48.455Z,4.00
2017-08-23T01:05:19.618Z,5.63
2017-08-23T01:07:49.927Z,4.33
2017-08-23T01:10:20.990Z,4.07
2017-08-23T01:12:51.432Z,4.97
2017-08-23T01:15:22.001Z,4.37
2017-08-23T01:17:52.477Z,3.90
2017-08-23T01:20:23.034Z,4.23
2017-08-23T01:22:54.214Z,3.60
2017-08-23T01:25:25.082Z,5.40
2017-08-23T01:27:55.929Z,6.53
2017-08-23T01:30:26.545Z,4.57
2017-08-23T01:32:56.971Z,4.60
2017-08-23T01:35:30.856Z,4.17
2017-08-23T01:38:01.498Z,3.93
2017-08-23T01:40:32.445Z,3.50
2017-08-23T01:43:04.607Z,6.50
2017-08-23T01:45:35.426Z,5.43
2017-08-23T01:48:05.986Z,3.90
2017-08-23T01:50:36.835Z,6.20
2017-08-23T01:53:07.187Z,4.30
2017-08-23T01:55:37.946Z,6.30
2017-08-23T01:58:08.882Z,4.63
2017-08-23T02:00:39.655Z,5.50
2017-08-23T02:03:10.391Z,7.60
2017-08-23T02:05:41.515Z,5.53
2017-08-23T02:08:12.734Z,4.80
2017-08-23T02:10:43.822Z,6.60
2017-08-23T02:13:15.356Z,5.37
2017-08-23T02:15:46.128Z,6.43
2017-08-23T02:18:17.448Z,4.47
2017-08-23T02:20:47.892Z,5.00
2017-08-23T02:23:20.163Z,7.77
2017-08-23T02:25:50.815Z,5.67
2017-08-23T02:28:21.445Z,7.40
2017-08-23T02:30:52.791Z,4.87
2017-08-23T02:33:23.290Z,5.87
2017-08-23T02:35:54.231Z,6.13
2017-08-23T02:38:25.177Z,6.43
2017-08-23T02:40:56.167Z,6.67
2017-08-23T02:43:27.467Z,5.43
2017-08-23T02:45:58.297Z,6.40
2017-08-23T02:48:28.935Z,6.07
2017-08-23T02:50:59.801Z,5.80
2017-08-23T02:53:30.818Z,5.60
2017-08-23T02:56:01.686Z,4.13
2017-08-23T02:58:33.093Z,7.03
2017-08-23T03:01:03.879Z,7.47
2017-08-23T03:03:35.330Z,6.87
2017-08-23T03:06:05.907Z,5.67
2017-08-23T03:08:36.899Z,7.17
2017-08-23T03:11:07.433Z,6.40
2017-08-23T03:13:37.956Z,4.73
2017-08-23T03:16:10.082Z,6.53
2017-08-23T03:18:40.767Z,7.40
2017-08-23T03:21:11.534Z,5.80
2017-08-23T03:23:42.200Z,5.60
2017-08-23T03:26:13.614Z,5.80
2017-08-23T03:28:45.320Z,6.30
2017-08-23T03:31:16.528Z,6.70
2017-08-23T03:33:47.469Z,5.87
2017-08-23T03:36:18.953Z,6.43
2017-08-23T03:38:49.733Z,6.10
2017-08-23T03:41:21.160Z,6.20
2017-08-23T03:43:51.717Z,8.10
2017-08-23T03:46:23.167Z,8.10
2017-08-23T03:48:53.776Z,5.80
2017-08-23T03:51:24.644Z,6.20
2017-08-23T03:53:55.938Z,8.50
2017-08-23T03:56:26.629Z,6.40
2017-08-23T03:58:57.449Z,6.30
2017-08-23T04:01:28.338Z,6.27
2017-08-23T04:03:59.013Z,6.20
2017-08-23T04:06:31.115Z,6.87
2017-08-23T04:09:03.097Z,6.60
2017-08-23T04:11:34.133Z,6.63
2017-08-23T04:14:05.381Z,7.43
2017-08-23T04:16:36.158Z,7.20
2017-08-23T04:19:06.973Z,7.00
2017-08-23T04:21:38.801Z,6.33
2017-08-23T04:24:09.274Z,8.13
2017-08-23T04:26:40.637Z,6.80
2017-08-23T04:29:20.901Z,5.20
2017-08-23T04:31:57.265Z,6.03
2017-08-23T04:34:32.907Z,8.03
2017-08-23T04:37:04.495Z,8.43
2017-08-23T04:39:38.214Z,5.80
2017-08-23T04:42:13.327Z,6.60
2017-08-23T04:44:44.439Z,6.07
2017-08-23T04:47:14.917Z,8.83
2017-08-23T04:49:45.444Z,5.67
2017-08-23T04:52:15.743Z,7.83
2017-08-23T04:54:46.921Z,5.30
2017-08-23T04:57:17.856Z,8.27
2017-08-23T04:59:48.855Z,6.40
2017-08-23T05:02:20.297Z,5.60
2017-08-23T05:04:50.549Z,6.80
2017-08-23T05:07:20.906Z,7.30
2017-08-23T05:09:51.975Z,7.80
2017-08-23T05:12:23.594Z,5.70
2017-08-23T05:14:54.067Z,8.53
2017-08-23T05:17:24.450Z,6.90
2017-08-23T05:19:54.680Z,7.00
2017-08-23T05:22:26.230Z,6.10
2017-08-23T05:24:57.128Z,6.87
2017-08-23T05:27:27.455Z,7.30
2017-08-23T05:29:58.841Z,10.20
2017-08-23T05:32:30.042Z,10.83
2017-08-23T05:35:00.519Z,7.60
2017-08-23T05:37:30.933Z,8.80
2017-08-23T05:40:01.679Z,10.00
2017-08-23T05:42:32.372Z,8.90
2017-08-23T05:45:02.798Z,8.30
2017-08-23T05:47:34.672Z,11.53
2017-08-23T05:50:05.118Z,7.90
2017-08-23T05:52:35.433Z,11.43
2017-08-23T05:55:06.086Z,9.83
2017-08-23T05:57:36.532Z,10.90
2017-08-23T06:00:07.038Z,10.00
2017-08-23T06:02:37.530Z,10.27
2017-08-23T06:05:07.849Z,9.27
2017-08-23T06:07:39.233Z,10.53
2017-08-23T06:10:11.307Z,12.30
2017-08-23T06:12:41.711Z,12.60
2017-08-23T06:15:12.896Z,12.67
2017-08-23T06:17:43.307Z,11.50
2017-08-23T06:20:13.883Z,10.10
2017-08-23T06:22:44.403Z,11.20
2017-08-23T06:25:15.872Z,10.60
2017-08-23T06:27:46.198Z,10.90
2017-08-23T06:30:16.566Z,10.50
2017-08-23T06:32:47.241Z,10.07
2017-08-23T06:35:17.470Z,10.27
2017-08-23T06:37:47.676Z,9.20
2017-08-23T06:40:18.766Z,9.40
2017-08-23T06:42:49.473Z,8.70
2017-08-23T06:45:19.874Z,8.67
2017-08-23T06:47:50.250Z,9.00
2017-08-23T06:50:20.553Z,9.87
2017-08-23T06:52:51.299Z,7.63
2017-08-23T06:55:21.630Z,7.80
2017-08-23T06:57:51.998Z,8.03
2017-08-23T07:00:22.389Z,7.43
2017-08-23T07:02:52.693Z,7.80
2017-08-23T07:05:23.040Z,8.07
2017-08-23T07:07:53.617Z,8.00
2017-08-23T07:10:23.997Z,7.37
2017-08-23T07:12:55.095Z,7.60
2017-08-23T07:15:25.533Z,8.77
2017-08-23T07:17:55.972Z,7.47
2017-08-23T07:20:26.491Z,8.23
2017-08-23T07:22:56.739Z,7.73
2017-08-23T07:25:27.017Z,8.00
2017-08-23T07:27:57.396Z,7.80
2017-08-23T07:30:29.214Z,7.10
2017-08-23T07:32:59.607Z,7.53
2017-08-23T07:35:30.273Z,7.57
2017-08-23T07:38:01.403Z,6.77
2017-08-23T07:40:31.831Z,7.47
2017-08-23T07:43:02.274Z,6.33
2017-08-23T07:45:33.039Z,6.60
2017-08-23T07:48:03.482Z,6.13
2017-08-23T07:50:34.737Z,6.40
2017-08-23T07:53:05.140Z,6.87
2017-08-23T07:55:35.989Z,6.30
2017-08-23T07:58:06.351Z,6.73
2017-08-23T08:00:36.760Z,7.47
2017-08-23T08:03:07.962Z,6.30
2017-08-23T08:05:38.350Z,6.30
2017-08-23T08:08:08.726Z,6.13
2017-08-23T08:10:39.642Z,5.90
2017-08-23T08:13:10.329Z,6.03
2017-08-23T08:15:40.940Z,6.30
2017-08-23T08:18:11.305Z,6.20
2017-08-23T08:20:41.666Z,5.10
2017-08-23T08:23:12.001Z,6.00
2017-08-23T08:25:42.721Z,6.10
2017-08-23T08:28:13.032Z,6.53
2017-08-23T08:30:43.384Z,5.97
2017-08-23T08:33:13.812Z,6.00
2017-08-23T08:35:44.106Z,5.33
2017-08-23T08:38:14.399Z,7.00
2017-08-23T08:40:45.105Z,4.77
2017-08-23T08:43:15.957Z,5.80
2017-08-23T08:45:46.977Z,5.30
2017-08-23T08:48:17.278Z,6.00
2017-08-23T08:50:49.696Z,6.10
2017-08-23T08:53:20.187Z,5.27
2017-08-23T08:55:50.544Z,5.20
2017-08-23T08:58:21.812Z,6.50
2017-08-23T09:00:52.026Z,5.30
2017-08-23T09:03:22.238Z,5.17
2017-08-23T09:05:52.606Z,6.07
2017-08-23T09:08:22.825Z,5.53
2017-08-23T09:10:53.617Z,5.50
2017-08-23T09:13:23.974Z,5.40
2017-08-23T09:15:54.279Z,5.10
2017-08-23T09:18:25.507Z,5.50
2017-08-23T09:20:56.098Z,5.47
2017-08-23T09:23:26.833Z,4.43
2017-08-23T09:25:57.526Z,5.53
2017-08-23T09:28:28.235Z,4.77
2017-08-23T09:30:59.118Z,5.70
2017-08-23T09:33:29.688Z,7.40
2017-08-23T09:36:00.185Z,5.80
2017-08-23T09:38:30.855Z,5.33
2017-08-23T09:41:01.210Z,5.93
2017-08-23T09:43:31.649Z,4.40
2017-08-23T09:46:03.274Z,6.50
2017-08-23T09:48:33.887Z,6.00
2017-08-23T09:51:04.117Z,5.83
2017-08-23T09:53:34.296Z,6.00
2017-08-23T09:56:05.155Z,5.77
2017-08-23T09:58:35.466Z,6.33
2017-08-23T10:01:05.850Z,6.63
2017-08-23T10:03:36.542Z,5.13
2017-08-23T10:06:06.946Z,6.10
2017-08-23T10:08:37.286Z,5.03
2017-08-23T10:11:07.617Z,4.83
2017-08-23T10:13:38.273Z,5.63
2017-08-23T10:16:08.553Z,4.03
2017-08-23T10:18:39.552Z,5.50
2017-08-23T10:21:10.694Z,5.43
2017-08-23T10:23:41.764Z,4.40
2017-08-23T10:26:12.266Z,6.10
2017-08-23T10:28:42.748Z,5.00
2017-08-23T10:31:13.082Z,4.43
2017-08-23T10:33:43.472Z,5.80
2017-08-23T10:36:13.838Z,5.70
2017-08-23T10:38:45.067Z,5.00
2017-08-23T10:41:17.845Z,5.30
2017-08-23T10:43:53.551Z,5.60
2017-08-23T10:46:29.508Z,6.93
2017-08-23T10:49:04.171Z,6.30
2017-08-23T10:51:43.815Z,5.77
2017-08-23T10:54:15.179Z,5.37
2017-08-23T10:56:45.593Z,6.07
2017-08-23T10:59:16.244Z,7.50
2017-08-23T11:01:46.874Z,8.03
2017-08-23T11:04:17.596Z,7.67
2017-08-23T11:06:47.850Z,5.33
2017-08-23T11:09:18.208Z,6.07
2017-08-23T11:11:48.625Z,8.10
2017-08-23T11:14:18.907Z,7.60
2017-08-23T11:16:49.287Z,8.80
2017-08-23T11:19:20.753Z,9.10
2017-08-23T11:21:51.106Z,9.60
2017-08-23T11:24:22.010Z,9.57
2017-08-23T11:26:52.819Z,11.70
2017-08-23T11:29:23.254Z,10.00
2017-08-23T11:31:53.466Z,7.60
2017-08-23T11:34:24.365Z,6.77
2017-08-23T11:36:55.153Z,6.13
2017-08-23T11:39:25.905Z,7.20
2017-08-23T11:41:56.216Z,7.30
2017-08-23T11:44:26.999Z,8.57
2017-08-23T11:46:57.681Z,9.97
2017-08-23T11:49:27.953Z,6.27
2017-08-23T11:51:58.161Z,6.57
2017-08-23T11:54:29.657Z,7.03
2017-08-23T11:56:59.898Z,8.00
2017-08-23T11:59:30.355Z,7.90
2017-08-23T12:02:00.654Z,6.40
2017-08-23T12:04:31.299Z,9.00
2017-08-23T12:07:01.757Z,11.20
2017-08-23T12:09:32.458Z,9.20
2017-08-23T12:12:02.853Z,9.63
2017-08-23T12:14:34.247Z,6.90
2017-08-23T12:17:04.862Z,7.70
2017-08-23T12:19:35.266Z,8.67
2017-08-23T12:22:05.523Z,10.30
2017-08-23T12:24:36.243Z,9.40
2017-08-23T12:27:06.627Z,8.70
2017-08-23T12:29:36.965Z,7.90
2017-08-23T12:32:07.177Z,11.07
2017-08-23T12:34:37.417Z,11.80
2017-08-23T12:37:07.649Z,8.87
2017-08-23T12:39:38.609Z,8.27
2017-08-23T12:42:09.005Z,8.90
2017-08-23T12:44:39.377Z,6.97
2017-08-23T12:47:09.731Z,7.43
2017-08-23T12:49:40.088Z,7.77
2017-08-23T12:52:10.510Z,7.20
2017-08-23T12:54:40.763Z,7.60
2017-08-23T12:57:11.785Z,8.63
2017-08-23T12:59:42.049Z,8.77
2017-08-23T13:02:13.515Z,8.60
2017-08-23T13:04:43.842Z,7.20
2017-08-23T13:07:14.175Z,9.53
2017-08-23T13:09:44.579Z,9.30
2017-08-23T13:12:15.390Z,7.00
2017-08-23T13:14:48.115Z,8.40
2017-08-23T13:17:19.181Z,10.33
2017-08-23T13:19:49.553Z,7.73
2017-08-23T13:22:19.814Z,6.63
2017-08-23T13:24:50.134Z,6.97
2017-08-23T13:27:20.862Z,9.17
2017-08-23T13:29:51.982Z,8.07
2017-08-23T13:32:22.368Z,8.33
2017-08-23T13:34:52.790Z,7.67
2017-08-23T13:37:23.160Z,9.00
2017-08-23T13:39:53.958Z,8.80
2017-08-23T13:42:24.488Z,8.90
2017-08-23T13:44:55.102Z,8.37
2017-08-23T13:47:25.793Z,11.30
2017-08-23T13:49:56.011Z,7.70
2017-08-23T13:52:26.286Z,7.80
2017-08-23T13:54:56.954Z,7.67
2017-08-23T13:57:28.087Z,8.30
2017-08-23T13:59:58.573Z,8.63
2017-08-23T14:02:29.731Z,11.10
2017-08-23T14:05:00.614Z,8.00
2017-08-23T14:07:31.205Z,8.13
2017-08-23T14:10:01.810Z,9.30
2017-08-23T14:12:33.416Z,10.20
2017-08-23T14:15:03.852Z,7.60
2017-08-23T14:17:34.677Z,8.67
2017-08-23T14:20:05.057Z,10.00
2017-08-23T14:22:35.589Z,8.43
2017-08-23T14:25:06.680Z,8.90
2017-08-23T14:27:38.274Z,7.50
2017-08-23T14:30:08.609Z,9.07
2017-08-23T14:32:39.992Z,10.30
2017-08-23T14:37:43.526Z,9.27
2017-08-23T14:40:14.421Z,8.60
2017-08-23T14:42:45.138Z,9.70
2017-08-23T14:45:15.524Z,8.60
2017-08-23T14:47:45.951Z,8.47
2017-08-23T14:50:16.266Z,9.20
2017-08-23T14:52:47.172Z,8.97
2017-08-23T14:55:17.424Z,8.37
2017-08-23T14:57:48.287Z,9.73
2017-08-23T15:00:18.793Z,9.40
2017-08-23T15:02:49.285Z,9.40
2017-08-23T15:05:19.591Z,8.37
2017-08-23T15:07:49.908Z,7.93
2017-08-23T15:10:20.293Z,7.87
2017-08-23T15:12:51.130Z,5.67
2017-08-23T15:15:21.502Z,7.07
2017-08-23T15:17:51.776Z,8.20
2017-08-23T15:20:22.821Z,8.40
2017-08-23T15:22:56.549Z,7.77
2017-08-23T15:25:27.602Z,8.27
2017-08-23T15:27:58.433Z,7.20
2017-08-23T15:30:29.402Z,8.90
2017-08-23T15:33:01.553Z,8.17
2017-08-23T15:35:32.321Z,6.97
2017-08-23T15:38:03.549Z,9.60
2017-08-23T15:40:33.990Z,8.27
2017-08-23T15:43:04.520Z,7.50
2017-08-23T15:45:35.738Z,9.80
2017-08-23T15:48:06.419Z,7.03
2017-08-23T15:50:36.834Z,6.80
2017-08-23T15:53:07.540Z,6.50
2017-08-23T15:55:37.755Z,7.80
2017-08-23T15:58:08.836Z,9.50
2017-08-23T16:00:39.124Z,7.40
2017-08-23T16:03:10.107Z,8.30
2017-08-23T16:05:40.362Z,7.60
2017-08-23T16:08:11.366Z,9.10
2017-08-23T16:10:41.683Z,7.60
2017-08-23T16:13:12.712Z,7.30
2017-08-23T16:15:43.057Z,6.50
2017-08-23T16:18:14.001Z,6.47
2017-08-23T16:20:44.398Z,6.93
2017-08-23T16:23:15.005Z,7.03
2017-08-23T16:25:45.336Z,13.23
2017-08-23T16:28:15.735Z,6.70
2017-08-23T16:30:46.951Z,9.67
2017-08-23T16:33:18.022Z,6.60
2017-08-23T16:35:48.270Z,5.50
2017-08-23T16:38:19.198Z,6.47
2017-08-23T16:40:49.751Z,4.40
2017-08-23T16:43:20.981Z,5.40
2017-08-23T16:45:51.175Z,6.47
2017-08-23T16:48:21.679Z,5.60
2017-08-23T16:50:51.895Z,5.87
2017-08-23T16:53:24.331Z,6.80
2017-08-23T16:55:54.591Z,7.07
2017-08-23T16:58:25.662Z,5.40
2017-08-23T17:00:56.037Z,5.93
2017-08-23T17:03:26.438Z,6.07
2017-08-23T17:05:56.907Z,5.87
2017-08-23T17:08:27.687Z,6.37
2017-08-23T17:10:59.864Z,5.50
2017-08-23T17:13:32.594Z,6.20
2017-08-23T17:18:40.554Z,4.90
2017-08-23T17:21:11.172Z,5.60
2017-08-23T17:23:42.670Z,4.60
2017-08-23T17:26:12.955Z,6.50
2017-08-23T17:28:43.437Z,4.80
2017-08-23T17:31:13.874Z,5.97
2017-08-23T17:33:44.326Z,5.57
2017-08-23T17:36:14.718Z,4.10
2017-08-23T17:38:45.158Z,6.77
2017-08-23T17:41:16.665Z,4.20
2017-08-23T17:43:47.418Z,6.43
2017-08-23T17:46:17.921Z,3.57
2017-08-23T17:48:48.759Z,3.50
2017-08-23T17:51:19.220Z,4.43
2017-08-23T17:53:49.928Z,5.63
2017-08-23T17:56:20.787Z,5.27
2017-08-23T17:58:51.060Z,5.10
2017-08-23T18:01:21.508Z,6.13
2017-08-23T18:03:52.146Z,5.23
2017-08-23T18:06:22.646Z,3.67
2017-08-23T18:08:53.078Z,5.27
2017-08-23T18:11:23.382Z,3.83
2017-08-23T18:13:53.909Z,3.73
2017-08-23T18:16:25.276Z,4.13
2017-08-23T18:18:56.288Z,4.87
2017-08-23T18:21:26.927Z,5.23
2017-08-23T18:23:58.020Z,5.60
2017-08-23T18:26:29.159Z,6.27
2017-08-23T18:29:00.867Z,4.00
2017-08-23T18:31:32.750Z,3.90
2017-08-23T18:34:04.169Z,4.80
2017-08-23T18:36:35.594Z,3.47
2017-08-23T18:39:06.284Z,3.57
2017-08-23T18:41:36.840Z,3.83
2017-08-23T18:44:07.623Z,5.00
2017-08-23T18:46:37.826Z,5.60
2017-08-23T18:49:08.134Z,3.80
2017-08-23T18:51:38.801Z,4.53
2017-08-23T18:54:09.064Z,3.80
2017-08-23T18:56:39.397Z,5.43
2017-08-23T18:59:09.970Z,3.77
2017-08-23T19:01:40.344Z,4.50
2017-08-23T19:04:10.944Z,5.53
2017-08-23T19:06:47.537Z,5.40
2017-08-23T19:09:24.232Z,5.13
2017-08-23T19:11:55.819Z,4.73
2017-08-23T19:14:26.598Z,4.90
2017-08-23T19:16:57.563Z,5.80
2017-08-23T19:19:27.879Z,3.97
2017-08-23T19:21:59.182Z,3.90
2017-08-23T19:24:29.545Z,4.60
2017-08-23T19:27:00.866Z,5.10
2017-08-23T19:29:31.162Z,5.77
2017-08-23T19:32:01.895Z,5.23
2017-08-23T19:34:32.617Z,5.60
2017-08-23T19:37:02.877Z,5.20
2017-08-23T19:39:33.674Z,4.60
2017-08-23T19:42:04.483Z,6.90
2017-08-23T19:44:35.783Z,5.03
2017-08-23T19:47:06.157Z,6.80
2017-08-23T19:49:37.607Z,7.60
2017-08-23T19:52:08.363Z,8.43
2017-08-23T19:57:19.251Z,5.60
2017-08-23T19:59:50.050Z,5.57
2017-08-23T20:02:20.666Z,6.93
2017-08-23T20:04:51.704Z,6.90
2017-08-23T20:07:22.071Z,6.30
2017-08-23T20:09:53.136Z,7.80
2017-08-23T20:12:23.350Z,6.20
2017-08-23T20:14:54.962Z,6.30
2017-08-23T20:17:25.423Z,4.67
2017-08-23T20:19:56.168Z,4.70
2017-08-23T20:22:26.736Z,5.80
2017-08-23T20:24:57.348Z,5.60
2017-08-23T20:27:27.690Z,5.20
2017-08-23T20:29:58.090Z,6.53
2017-08-23T20:32:29.217Z,6.80
2017-08-23T20:34:59.803Z,6.73
2017-08-23T20:37:30.025Z,6.90
2017-08-23T20:40:00.282Z,7.40
2017-08-23T20:42:30.930Z,5.43
2017-08-23T20:45:02.443Z,7.93
2017-08-23T20:47:32.970Z,7.20
2017-08-23T20:50:03.286Z,7.73
2017-08-23T20:52:33.664Z,7.80
2017-08-23T20:55:04.262Z,7.33
2017-08-23T20:57:34.621Z,7.87
2017-08-23T21:00:05.258Z,7.60
2017-08-23T21:02:35.613Z,8.37
2017-08-23T21:05:05.863Z,8.27
2017-08-23T21:07:36.074Z,7.37
2017-08-23T21:10:06.560Z,7.30
2017-08-23T21:12:36.832Z,7.70
2017-08-23T21:15:07.868Z,7.20
2017-08-23T21:17:38.558Z,8.90
2017-08-23T21:20:09.914Z,8.73
2017-08-23T21:22:40.097Z,8.50
2017-08-23T21:25:10.345Z,7.80
2017-08-23T21:27:41.692Z,8.13
2017-08-23T21:30:12.725Z,8.90
2017-08-23T21:32:43.297Z,8.23
2017-08-23T21:35:13.734Z,9.67
2017-08-23T21:37:44.408Z,9.70
2017-08-23T21:40:17.332Z,8.50
2017-08-23T21:42:47.636Z,9.37
2017-08-23T21:45:18.058Z,8.70
2017-08-23T21:54:57.236Z,8.50
2017-08-23T21:57:27.490Z,9.10
2017-08-23T21:59:57.842Z,7.40
2017-08-23T22:02:28.021Z,7.60
2017-08-23T22:04:58.258Z,8.07
2017-08-23T22:07:29.684Z,8.07
2017-08-23T22:10:08.536Z,8.77
2017-08-23T22:12:38.706Z,8.07
2017-08-23T22:15:08.896Z,7.97
2017-08-23T22:17:39.164Z,8.43
2017-08-23T22:20:18.240Z,8.00
2017-08-23T22:22:48.582Z,7.30
2017-08-23T22:25:19.032Z,5.40
2017-08-23T22:27:49.230Z,5.67
2017-08-23T22:30:19.637Z,6.27
2017-08-23T22:32:50.789Z,5.90
2017-08-23T22:35:20.964Z,7.30
2017-08-23T22:37:51.495Z,6.47
2017-08-23T22:40:21.580Z,7.23
2017-08-23T22:42:51.696Z,7.67
2017-08-23T22:45:21.796Z,6.10
2017-08-23T22:47:52.340Z,6.50
2017-08-23T22:50:22.988Z,5.77
2017-08-23T22:52:53.336Z,5.63
2017-08-23T22:55:23.465Z,7.80
2017-08-23T22:57:54.681Z,8.20
2017-08-23T23:00:26.349Z,6.90
2017-08-23T23:02:56.778Z,8.73
2017-08-23T23:05:26.905Z,7.50
2017-08-23T23:07:57.238Z,7.07
2017-08-23T23:10:28.822Z,9.30
2017-08-23T23:12:59.285Z,8.57
2017-08-23T23:15:29.533Z,9.90
2017-08-23T23:17:59.981Z,9.60
2017-08-23T23:20:30.157Z,8.93
2017-08-23T23:23:00.688Z,10.70
2017-08-23T23:25:30.897Z,9.20
2017-08-23T23:28:01.377Z,9.07
2017-08-23T23:30:31.552Z,9.57
2017-08-23T23:33:01.688Z,10.00
2017-08-23T23:35:31.942Z,8.10
2017-08-23T23:38:03.217Z,7.10
2017-08-23T23:40:33.468Z,11.10
2017-08-23T23:43:03.657Z,9.20
2017-08-23T23:45:33.852Z,9.23
2017-08-23T23:48:05.509Z,7.17
2017-08-23T23:50:35.604Z,9.47
2017-08-23T23:53:05.783Z,8.93
